createdAt,value
2023-04-29T00:00:22.634Z,13.48
2023-04-29T00:05:24.523Z,13.46
2023-04-29T00:10:26.381Z,13.43
2023-04-29T00:15:28.164Z,13.40
2023-04-29T00:20:29.798Z,13.39
2023-04-29T00:25:31.390Z,13.35
2023-04-29T00:30:34.643Z,13.34
2023-04-29T00:35:36.399Z,13.27
2023-04-29T00:40:38.380Z,13.24
2023-04-29T00:45:40.397Z,13.23
2023-04-29T00:50:42.531Z,13.21
2023-04-29T00:55:46.441Z,13.15
2023-04-29T01:00:49.602Z,13.16
2023-04-29T01:06:19.137Z,13.14
2023-04-29T01:11:23.832Z,13.09
2023-04-29T01:16:53.016Z,13.07
2023-04-29T01:21:55.128Z,13.01
2023-04-29T01:27:02.168Z,13.04
2023-04-29T01:32:34.688Z,13.02
2023-04-29T01:37:56.824Z,13.08
2023-04-29T01:43:03.430Z,13.09
2023-04-29T01:48:08.991Z,13.08
2023-04-29T01:53:10.878Z,13.04
2023-04-29T01:58:12.668Z,13.01
2023-04-29T02:03:31.857Z,12.99
2023-04-29T02:08:37.131Z,12.96
2023-04-29T02:13:39.103Z,12.91
2023-04-29T02:18:41.370Z,12.92
2023-04-29T02:23:43.275Z,12.91
2023-04-29T02:28:44.906Z,12.82
2023-04-29T02:33:46.587Z,12.63
2023-04-29T02:38:50.705Z,12.53
2023-04-29T02:43:52.318Z,12.45
2023-04-29T02:48:54.139Z,12.38
2023-04-29T02:53:56.372Z,12.29
2023-04-29T02:58:58.351Z,12.23
2023-04-29T03:04:00.265Z,12.15
2023-04-29T03:09:02.143Z,11.98
2023-04-29T03:14:04.122Z,11.91
2023-04-29T03:19:06.453Z,11.82
2023-04-29T03:24:08.862Z,11.87
2023-04-29T03:29:11.591Z,11.92
2023-04-29T03:34:14.676Z,11.85
2023-04-29T03:39:22.091Z,11.80
2023-04-29T03:44:23.948Z,11.85
2023-04-29T03:49:26.137Z,11.91
2023-04-29T03:54:28.156Z,11.88
2023-04-29T03:59:30.264Z,11.89
2023-04-29T04:04:32.178Z,11.83
2023-04-29T04:09:34.122Z,11.85
2023-04-29T04:14:36.103Z,11.88
2023-04-29T04:19:37.797Z,11.93
2023-04-29T04:24:39.471Z,11.98
2023-04-29T04:29:41.169Z,12.05
2023-04-29T04:34:49.939Z,12.06
2023-04-29T04:39:52.069Z,12.10
2023-04-29T04:44:54.178Z,12.15
2023-04-29T04:50:07.628Z,12.17
2023-04-29T04:55:09.863Z,12.23
2023-04-29T05:00:12.896Z,12.29
2023-04-29T05:05:14.923Z,12.33
2023-04-29T05:10:18.047Z,12.35
2023-04-29T05:15:27.610Z,12.41
2023-04-29T05:20:34.511Z,12.48
2023-04-29T05:25:36.932Z,12.44
2023-04-29T05:30:39.009Z,12.37
2023-04-29T05:35:41.868Z,12.36
2023-04-29T05:40:44.832Z,12.41
2023-04-29T05:46:06.038Z,12.40
2023-04-29T05:51:07.732Z,12.37
2023-04-29T05:56:09.824Z,12.26
2023-04-29T06:01:12.187Z,12.19
2023-04-29T06:06:14.006Z,12.20
2023-04-29T06:11:31.780Z,12.35
2023-04-29T06:16:36.500Z,12.64
2023-04-29T06:21:38.659Z,12.89
2023-04-29T06:26:41.364Z,13.20
2023-04-29T06:31:43.224Z,13.58
2023-04-29T06:36:45.082Z,13.78
2023-04-29T06:42:05.442Z,13.89
2023-04-29T06:47:41.989Z,13.97
2023-04-29T06:52:48.253Z,14.53
2023-04-29T06:57:49.994Z,14.80
2023-04-29T07:02:51.689Z,15.12
2023-04-29T07:07:53.607Z,15.35
2023-04-29T07:12:55.248Z,15.35
2023-04-29T07:17:57.127Z,15.33
2023-04-29T07:22:59.727Z,15.65
2023-04-29T07:28:01.503Z,15.91
2023-04-29T07:33:04.480Z,16.27
2023-04-29T07:38:06.605Z,16.27
2023-04-29T07:43:09.303Z,16.26
2023-04-29T07:48:11.141Z,16.46
2023-04-29T07:53:12.869Z,16.43
2023-04-29T07:58:14.685Z,16.53
2023-04-29T08:03:16.569Z,16.91
2023-04-29T08:08:18.974Z,17.05
2023-04-29T08:13:20.902Z,17.33
2023-04-29T08:18:22.751Z,17.40
2023-04-29T08:23:24.350Z,16.84
2023-04-29T08:28:25.972Z,16.77
2023-04-29T08:33:27.678Z,16.65
2023-04-29T08:38:32.346Z,17.03
2023-04-29T08:43:37.307Z,17.32
2023-04-29T08:48:44.990Z,17.38
2023-04-29T08:53:47.307Z,17.83
2023-04-29T08:58:58.249Z,18.09
2023-04-29T09:04:30.006Z,18.27
2023-04-29T09:09:33.373Z,18.43
2023-04-29T09:14:36.727Z,18.35
2023-04-29T09:19:38.372Z,18.54
2023-04-29T09:24:40.037Z,18.65
2023-04-29T09:30:00.998Z,18.65
2023-04-29T09:35:21.355Z,18.27
2023-04-29T09:40:43.419Z,17.99
2023-04-29T09:45:49.153Z,17.98
2023-04-29T09:51:04.441Z,17.96
2023-04-29T09:56:07.340Z,17.87
2023-04-29T10:01:09.972Z,17.74
2023-04-29T10:06:13.032Z,17.89
2023-04-29T10:11:16.826Z,17.92
2023-04-29T10:16:33.033Z,17.82
2023-04-29T10:21:34.988Z,17.51
2023-04-29T10:26:39.336Z,17.30
2023-04-29T10:31:43.641Z,17.57
2023-04-29T10:36:46.802Z,17.57
2023-04-29T10:41:50.885Z,17.55
2023-04-29T10:47:21.513Z,17.86
2023-04-29T10:52:23.226Z,18.73
2023-04-29T10:57:25.239Z,19.02
2023-04-29T11:02:27.066Z,18.63
2023-04-29T11:07:30.075Z,18.25
2023-04-29T11:12:31.729Z,18.19
2023-04-29T11:17:38.136Z,17.99
2023-04-29T11:22:40.200Z,17.88
2023-04-29T11:27:43.159Z,18.70
2023-04-29T11:32:44.824Z,19.52
2023-04-29T11:37:47.250Z,19.26
2023-04-29T11:42:50.094Z,19.22
2023-04-29T11:47:53.983Z,19.17
2023-04-29T11:52:58.360Z,18.54
2023-04-29T11:58:00.328Z,18.42
2023-04-29T12:03:02.144Z,18.12
2023-04-29T12:08:03.947Z,17.99
2023-04-29T12:13:05.616Z,18.05
2023-04-29T12:18:08.460Z,17.83
2023-04-29T12:23:24.298Z,17.69
2023-04-29T12:28:27.197Z,17.59
2023-04-29T12:33:30.045Z,17.66
2023-04-29T12:38:31.817Z,17.66
2023-04-29T12:43:33.836Z,17.57
2023-04-29T12:48:46.473Z,17.51
2023-04-29T12:53:48.199Z,17.45
2023-04-29T12:58:49.812Z,17.44
2023-04-29T13:03:51.970Z,17.52
2023-04-29T13:08:54.583Z,17.54
2023-04-29T13:13:56.156Z,17.63
2023-04-29T13:19:05.275Z,17.75
2023-04-29T13:24:10.523Z,17.94
2023-04-29T13:29:12.151Z,17.77
2023-04-29T13:34:13.909Z,17.66
2023-04-29T13:39:15.657Z,17.74
2023-04-29T13:44:29.384Z,17.82
2023-04-29T13:50:05.739Z,18.14
2023-04-29T13:55:33.031Z,18.78
2023-04-29T14:05:23.145Z,19.85
2023-04-29T14:10:25.043Z,19.53
2023-04-29T14:15:26.803Z,19.11
2023-04-29T14:20:28.400Z,19.03
2023-04-29T14:25:31.579Z,19.05
2023-04-29T14:30:34.732Z,19.14
2023-04-29T14:35:36.319Z,19.80
2023-04-29T14:40:39.174Z,19.69
2023-04-29T14:45:41.665Z,19.50
2023-04-29T14:50:43.330Z,19.30
2023-04-29T14:55:45.016Z,19.34
2023-04-29T15:00:46.931Z,19.35
2023-04-29T15:05:50.626Z,19.81
2023-04-29T15:10:52.606Z,19.72
2023-04-29T15:15:54.337Z,19.73
2023-04-29T15:20:55.976Z,19.53
2023-04-29T15:25:57.936Z,19.01
2023-04-29T15:31:01.869Z,18.61
2023-04-29T15:36:03.784Z,18.33
2023-04-29T15:41:05.649Z,17.77
2023-04-29T15:46:08.594Z,17.04
2023-04-29T15:51:10.594Z,16.91
2023-04-29T15:56:13.333Z,16.63
2023-04-29T16:01:15.085Z,17.00
2023-04-29T16:06:16.815Z,16.90
2023-04-29T16:11:18.714Z,16.50
2023-04-29T16:16:20.354Z,16.35
2023-04-29T16:21:22.120Z,16.48
2023-04-29T16:26:25.013Z,16.39
2023-04-29T16:31:27.767Z,16.53
2023-04-29T16:36:30.081Z,16.73
2023-04-29T16:41:32.301Z,16.96
2023-04-29T16:46:34.274Z,16.93
2023-04-29T16:51:36.157Z,17.03
2023-04-29T16:56:37.920Z,17.05
2023-04-29T17:01:39.965Z,17.10
2023-04-29T17:06:42.356Z,17.03
2023-04-29T17:11:44.144Z,17.07
2023-04-29T17:16:45.822Z,17.02
2023-04-29T17:21:47.449Z,17.00
2023-04-29T17:26:49.036Z,16.96
2023-04-29T17:31:59.306Z,16.92
2023-04-29T17:37:01.317Z,16.86
2023-04-29T17:42:03.643Z,16.79
2023-04-29T17:47:06.135Z,16.71
2023-04-29T17:52:07.759Z,16.59
2023-04-29T17:57:09.444Z,16.53
2023-04-29T18:02:11.108Z,16.49
2023-04-29T18:07:13.036Z,16.42
2023-04-29T18:12:14.722Z,16.33
2023-04-29T18:17:16.673Z,16.26
2023-04-29T18:22:18.329Z,16.19
2023-04-29T18:27:20.072Z,16.07
2023-04-29T18:32:21.732Z,15.95
2023-04-29T18:37:23.316Z,15.83
2023-04-29T18:42:24.924Z,15.72
2023-04-29T18:47:26.570Z,15.67
2023-04-29T19:26:05.985Z,14.60
2023-04-29T19:31:08.714Z,14.65
2023-04-29T19:36:11.535Z,14.72
2023-04-29T19:41:13.365Z,14.80
2023-04-29T19:46:15.078Z,14.79
2023-04-29T19:51:16.977Z,14.83
2023-04-29T19:56:20.028Z,14.83
2023-04-29T20:01:21.722Z,14.78
2023-04-29T20:06:23.458Z,14.73
2023-04-29T20:11:25.268Z,14.73
2023-04-29T20:16:30.929Z,14.76
2023-04-29T20:21:40.172Z,14.73
2023-04-29T20:26:44.254Z,14.71
2023-04-29T20:31:48.645Z,14.67
2023-04-29T20:36:53.492Z,14.61
2023-04-29T20:41:59.963Z,14.52
2023-04-29T20:47:04.865Z,14.40
2023-04-29T20:52:08.998Z,14.26
2023-04-29T20:57:12.534Z,14.22
2023-04-29T21:02:14.752Z,14.16
2023-04-29T21:07:16.675Z,14.08
2023-04-29T21:12:18.518Z,14.06
2023-04-29T21:17:20.114Z,14.04
2023-04-29T21:22:21.667Z,13.99
2023-04-29T21:27:23.319Z,13.94
2023-04-29T21:32:24.941Z,13.90
2023-04-29T21:37:26.655Z,13.76
2023-04-29T21:42:28.477Z,13.72
2023-04-29T21:47:30.825Z,13.72
2023-04-29T21:52:35.116Z,13.72
2023-04-29T21:57:44.556Z,13.63
2023-04-29T22:02:47.071Z,13.53
2023-04-29T22:07:48.742Z,13.48
2023-04-29T22:12:50.878Z,13.45
2023-04-29T22:17:52.655Z,13.43
2023-04-29T22:22:54.345Z,13.42
2023-04-29T22:27:56.794Z,13.32
2023-04-29T22:32:58.445Z,13.27
2023-04-29T22:38:00.122Z,13.18
2023-04-29T22:43:01.736Z,13.16
2023-04-29T22:48:03.457Z,13.16
2023-04-29T22:53:05.529Z,13.12
2023-04-29T22:58:07.204Z,13.11
2023-04-29T23:03:08.978Z,13.13
2023-04-29T23:08:10.709Z,13.16
2023-04-29T23:13:13.207Z,13.16
2023-04-29T23:18:15.011Z,13.18
2023-04-29T23:23:17.930Z,13.08
2023-04-29T23:28:19.673Z,13.06
2023-04-29T23:33:21.307Z,13.06
2023-04-29T23:38:23.089Z,12.97
2023-04-29T23:43:24.670Z,12.91
2023-04-29T23:48:26.258Z,12.78
2023-04-29T23:53:27.893Z,12.71
2023-04-29T23:58:29.515Z,12.63
